Time;durP1;ratioP1;P1;durP2;ratioP2;P2;SDS_P1;SDS_P2;PMS_P1;PMS_P2;Temp;Humidity;BMP_temperature;BMP_pressure;BME280_temperature;BME280_humidity;BME280_pressure;Samples;Min_cycle;Max_cycle;Signal;HPM_P1;HPM_P2
2022/11/02 00:00:44;;;;;;;;;0.00;0.00;;;;;;;;5087192;27;62152;-75
2022/11/02 00:03:10;;;;;;;;;0.75;0.00;;;;;;;;5086643;27;61941;-74
2022/11/02 00:05:35;;;;;;;;;3.00;1.00;;;;;;;;5105019;27;61878;-75
2022/11/02 00:08:00;;;;;;;;;1.50;1.00;;;;;;;;5087219;27;61690;-75
2022/11/02 00:10:26;;;;;;;;;1.00;0.00;;;;;;;;5105972;27;61927;-75
2022/11/02 00:12:51;;;;;;;;;2.00;0.50;;;;;;;;5086459;27;64597;-75
2022/11/02 00:15:17;;;;;;;;;0.50;0.50;;;;;;;;5086853;27;62141;-75
2022/11/02 00:17:43;;;;;;;;;0.50;0.50;;;;;;;;5105548;27;61728;-75
2022/11/02 00:20:11;;;;;;;;;0.00;0.00;;;;;;;;5104902;27;61699;-75
2022/11/02 00:22:37;;;;;;;;;1.00;0.25;;;;;;;;5086195;27;63560;-75
2022/11/02 00:25:03;;;;;;;;;1.50;0.50;;;;;;;;5104618;27;61828;-75
2022/11/02 00:27:30;;;;;;;;;0.00;0.00;;;;;;;;5105503;27;62614;-74
2022/11/02 00:29:55;;;;;;;;;1.50;0.25;;;;;;;;5105245;27;61907;-75
2022/11/02 00:32:20;;;;;;;;;1.75;1.75;;;;;;;;5104739;27;61818;-75
2022/11/02 00:34:46;;;;;;;;;1.00;1.00;;;;;;;;5104591;27;61876;-75
2022/11/02 00:37:11;;;;;;;;;1.75;1.00;;;;;;;;5105146;27;62564;-75
2022/11/02 00:39:37;;;;;;;;;2.00;1.00;;;;;;;;5105454;27;61867;-75
2022/11/02 00:42:02;;;;;;;;;1.25;0.00;;;;;;;;5104407;27;62177;-75
2022/11/02 00:44:27;;;;;;;;;2.00;0.00;;;;;;;;5085757;27;61867;-75
2022/11/02 00:46:52;;;;;;;;;3.00;0.00;;;;;;;;5105329;27;61783;-75
2022/11/02 00:49:18;;;;;;;;;2.25;0.00;;;;;;;;5104339;27;62170;-75
2022/11/02 00:51:43;;;;;;;;;2.00;0.75;;;;;;;;5104297;27;63558;-75
2022/11/02 00:54:08;;;;;;;;;0.00;0.00;;;;;;;;5086334;27;61989;-75
2022/11/02 00:56:33;;;;;;;;;2.00;0.00;;;;;;;;5105193;27;61928;-75
2022/11/02 00:58:59;;;;;;;;;3.50;1.00;;;;;;;;5104746;27;61800;-75
2022/11/02 01:01:24;;;;;;;;;1.00;1.00;;;;;;;;5104191;27;61815;-75
2022/11/02 01:03:49;;;;;;;;;0.00;0.00;;;;;;;;5086072;27;61870;-75
2022/11/02 01:06:14;;;;;;;;;1.00;0.00;;;;;;;;5104920;27;61981;-75
2022/11/02 01:08:40;;;;;;;;;1.00;0.00;;;;;;;;5104984;27;61826;-75
2022/11/02 01:11:13;;;;;;;;;2.00;0.00;;;;;;;;5104164;27;62182;-75
2022/11/02 01:13:38;;;;;;;;;0.00;0.00;;;;;;;;5085931;27;61771;-76
2022/11/02 01:16:04;;;;;;;;;4.25;1.00;;;;;;;;5104905;27;61900;-75
2022/11/02 01:18:30;;;;;;;;;0.00;0.00;;;;;;;;5104109;27;62016;-75
2022/11/02 01:20:56;;;;;;;;;1.00;1.00;;;;;;;;5104008;27;61765;-75
2022/11/02 01:23:21;;;;;;;;;2.00;1.00;;;;;;;;5104586;27;62209;-75
2022/11/02 01:25:46;;;;;;;;;1.50;0.50;;;;;;;;5104357;27;61760;-75
2022/11/02 01:28:11;;;;;;;;;0.50;0.00;;;;;;;;5104693;27;61736;-74
2022/11/02 01:30:37;;;;;;;;;1.25;1.00;;;;;;;;5103361;27;61899;-75
2022/11/02 01:33:04;;;;;;;;;2.50;0.25;;;;;;;;5103969;27;61863;-75
2022/11/02 01:35:29;;;;;;;;;3.00;0.50;;;;;;;;5103722;27;61887;-75
2022/11/02 01:37:54;;;;;;;;;7.25;1.00;;;;;;;;5104254;27;61812;-75
2022/11/02 01:40:20;;;;;;;;;0.00;0.00;;;;;;;;5085173;27;61983;-75
2022/11/02 01:42:45;;;;;;;;;1.00;1.00;;;;;;;;5085751;27;61918;-75
2022/11/02 01:45:12;;;;;;;;;0.50;0.50;;;;;;;;5103595;27;62049;-75
2022/11/02 01:47:40;;;;;;;;;0.00;0.00;;;;;;;;5085632;27;61846;-75
2022/11/02 01:50:09;;;;;;;;;1.50;0.50;;;;;;;;5103257;27;61718;-75
2022/11/02 01:52:35;;;;;;;;;0.00;0.00;;;;;;;;5085280;27;61883;-75
2022/11/02 01:55:07;;;;;;;;;1.00;1.00;;;;;;;;5085746;27;61923;-75
2022/11/02 01:57:34;;;;;;;;;1.00;0.00;;;;;;;;5085535;27;61739;-75
2022/11/02 02:00:10;;;;;;;;;3.50;1.00;;;;;;;;5103266;27;61864;-75
2022/11/02 02:02:39;;;;;;;;;2.00;0.00;;;;;;;;5103323;27;61998;-75
2022/11/02 02:05:06;;;;;;;;;0.00;0.00;;;;;;;;5103855;27;61797;-75
2022/11/02 02:07:34;;;;;;;;;5.00;1.00;;;;;;;;5104025;27;61726;-75
2022/11/02 02:09:59;;;;;;;;;2.75;1.00;;;;;;;;5103213;27;61708;-75
2022/11/02 02:12:25;;;;;;;;;3.00;0.00;;;;;;;;5103306;27;61910;-75
2022/11/02 02:14:51;;;;;;;;;1.00;0.00;;;;;;;;5103246;27;62024;-75
2022/11/02 02:17:30;;;;;;;;;2.00;1.00;;;;;;;;5103821;27;61867;-75
2022/11/02 02:20:15;;;;;;;;;2.00;0.00;;;;;;;;5102686;27;62004;-75
2022/11/02 02:22:56;;;;;;;;;2.50;0.00;;;;;;;;5103421;27;61769;-75
2022/11/02 02:25:40;;;;;;;;;1.75;0.00;;;;;;;;5103338;27;61986;-75
2022/11/02 02:28:05;;;;;;;;;3.00;1.00;;;;;;;;5103849;27;61880;-75
2022/11/02 02:30:35;;;;;;;;;2.00;0.25;;;;;;;;5102117;27;63180;-75
2022/11/02 02:33:06;;;;;;;;;1.75;1.75;;;;;;;;5103443;27;62161;-75
2022/11/02 02:35:40;;;;;;;;;0.00;0.00;;;;;;;;5103575;27;61944;-75
2022/11/02 02:38:28;;;;;;;;;1.25;0.25;;;;;;;;5103766;27;61780;-75
2022/11/02 02:41:02;;;;;;;;;2.00;0.00;;;;;;;;5076725;27;62103;-75
2022/11/02 02:43:36;;;;;;;;;2.00;1.00;;;;;;;;5103429;27;61923;-75
2022/11/02 02:46:24;;;;;;;;;4.00;1.00;;;;;;;;5082595;27;61997;-75
2022/11/02 02:48:51;;;;;;;;;2.00;0.00;;;;;;;;5102873;27;61966;-75
2022/11/02 02:51:23;;;;;;;;;1.00;0.00;;;;;;;;5102522;27;61984;-75
2022/11/02 02:53:51;;;;;;;;;1.50;0.00;;;;;;;;5084559;27;61864;-74
2022/11/02 02:56:19;;;;;;;;;7.00;1.00;;;;;;;;5084660;27;61832;-75
2022/11/02 02:58:49;;;;;;;;;4.00;0.00;;;;;;;;5102505;27;61711;-75
2022/11/02 03:01:15;;;;;;;;;0.50;0.25;;;;;;;;5102571;27;61966;-75
2022/11/02 03:03:42;;;;;;;;;2.00;0.00;;;;;;;;5102708;27;61779;-75
2022/11/02 03:06:10;;;;;;;;;1.25;1.00;;;;;;;;5103245;27;61791;-75
2022/11/02 03:08:37;;;;;;;;;6.25;1.00;;;;;;;;5103010;27;61937;-75
2022/11/02 03:11:13;;;;;;;;;0.00;0.00;;;;;;;;5083768;27;63356;-75
2022/11/02 03:13:44;;;;;;;;;1.50;0.50;;;;;;;;5102282;27;61760;-76
2022/11/02 03:16:16;;;;;;;;;6.25;1.25;;;;;;;;5084356;27;61990;-75
2022/11/02 03:18:51;;;;;;;;;2.00;0.00;;;;;;;;5102446;27;61726;-75
2022/11/02 03:21:17;;;;;;;;;5.00;2.00;;;;;;;;5102252;27;62818;-75
2022/11/02 03:23:54;;;;;;;;;2.00;1.00;;;;;;;;5084202;27;61767;-75
2022/11/02 03:26:29;;;;;;;;;1.25;1.00;;;;;;;;5084382;27;61879;-75
2022/11/02 03:29:12;;;;;;;;;7.00;0.25;;;;;;;;5102005;27;61915;-74
2022/11/02 03:31:41;;;;;;;;;1.75;1.00;;;;;;;;5101789;27;62711;-75
2022/11/02 03:34:12;;;;;;;;;5.00;0.00;;;;;;;;5084142;27;61855;-75
2022/11/02 03:36:47;;;;;;;;;2.75;0.75;;;;;;;;5102610;27;62100;-75
2022/11/02 03:39:15;;;;;;;;;0.25;0.25;;;;;;;;5102768;27;61773;-75
2022/11/02 03:41:43;;;;;;;;;2.50;0.00;;;;;;;;5101718;27;61799;-75
2022/11/02 03:44:13;;;;;;;;;0.00;0.00;;;;;;;;5102316;27;61838;-75
2022/11/02 03:46:40;;;;;;;;;3.50;3.00;;;;;;;;5102000;27;61798;-75
2022/11/02 03:49:06;;;;;;;;;3.25;0.50;;;;;;;;5102390;27;61966;-75
2022/11/02 03:51:33;;;;;;;;;2.00;1.00;;;;;;;;5101654;27;62061;-75
2022/11/02 03:54:01;;;;;;;;;1.50;0.25;;;;;;;;5101980;27;61677;-75
2022/11/02 03:56:30;;;;;;;;;2.00;1.00;;;;;;;;5101787;27;61749;-75
2022/11/02 03:58:56;;;;;;;;;1.50;0.00;;;;;;;;5102507;27;61807;-75
2022/11/02 04:01:21;;;;;;;;;2.25;0.00;;;;;;;;5105140;27;62138;-75
2022/11/02 04:03:46;;;;;;;;;4.50;1.50;;;;;;;;5105288;27;62060;-74
2022/11/02 04:06:12;;;;;;;;;2.75;1.00;;;;;;;;5105854;27;61880;-74
2022/11/02 04:08:42;;;;;;;;;5.00;0.00;;;;;;;;5087400;27;61849;-75
2022/11/02 04:16:36;;;;;;;;;4.25;1.00;;;;;;;;5105558;27;61763;-75
2022/11/02 04:27:14;;;;;;;;;3.00;1.00;;;;;;;;5105103;27;62074;-74
2022/11/02 04:29:39;;;;;;;;;2.25;0.50;;;;;;;;5105008;27;61860;-75
2022/11/02 04:32:04;;;;;;;;;1.50;1.00;;;;;;;;5104686;27;62036;-75
2022/11/02 04:34:30;;;;;;;;;0.00;0.00;;;;;;;;5105264;27;61879;-74
2022/11/02 04:36:55;;;;;;;;;0.25;0.25;;;;;;;;5086721;27;62013;-75
2022/11/02 04:39:20;;;;;;;;;0.25;0.00;;;;;;;;5105542;27;61942;-75
2022/11/02 04:41:45;;;;;;;;;1.00;0.00;;;;;;;;5104003;27;63012;-75
2022/11/02 04:44:13;;;;;;;;;3.00;1.00;;;;;;;;5086030;27;61851;-75
2022/11/02 04:46:38;;;;;;;;;1.00;1.00;;;;;;;;5103640;27;61985;-74
2022/11/02 04:49:04;;;;;;;;;0.50;0.00;;;;;;;;5085426;27;61834;-75
2022/11/02 04:51:30;;;;;;;;;0.25;0.00;;;;;;;;5104394;27;61996;-75
2022/11/02 04:53:56;;;;;;;;;3.50;1.00;;;;;;;;5086378;27;61808;-74
2022/11/02 04:56:22;;;;;;;;;2.00;1.00;;;;;;;;5086057;27;61882;-75
2022/11/02 04:58:50;;;;;;;;;5.00;1.25;;;;;;;;5105213;27;61721;-75
2022/11/02 05:01:16;;;;;;;;;3.00;1.00;;;;;;;;5104027;27;61846;-75
2022/11/02 05:03:42;;;;;;;;;0.25;0.00;;;;;;;;5086371;27;62121;-74
2022/11/02 05:06:10;;;;;;;;;2.75;0.00;;;;;;;;5104786;27;61630;-75
2022/11/02 05:08:35;;;;;;;;;3.75;0.50;;;;;;;;5105178;27;61986;-75
2022/11/02 05:11:00;;;;;;;;;2.00;1.00;;;;;;;;5083759;27;63067;-75
2022/11/02 05:13:26;;;;;;;;;4.75;0.75;;;;;;;;5104670;27;62005;-75
2022/11/02 05:15:55;;;;;;;;;5.75;1.00;;;;;;;;5104379;27;61860;-74
2022/11/02 05:18:20;;;;;;;;;2.25;0.25;;;;;;;;5104427;27;61984;-76
2022/11/02 05:20:56;;;;;;;;;6.00;2.25;;;;;;;;5104258;27;61752;-75
2022/11/02 05:23:22;;;;;;;;;1.00;1.00;;;;;;;;5103856;27;61703;-74
2022/11/02 05:26:09;;;;;;;;;5.00;1.00;;;;;;;;5085960;27;61737;-75
2022/11/02 05:28:34;;;;;;;;;2.00;0.00;;;;;;;;5104854;27;61613;-75
2022/11/02 05:31:00;;;;;;;;;3.50;1.00;;;;;;;;5084774;27;63399;-74
2022/11/02 05:33:27;;;;;;;;;4.50;1.00;;;;;;;;5104449;27;61861;-75
2022/11/02 05:35:53;;;;;;;;;1.25;0.50;;;;;;;;5086102;27;61788;-74
2022/11/02 05:38:18;;;;;;;;;0.00;0.00;;;;;;;;5085875;27;61879;-75
2022/11/02 05:40:49;;;;;;;;;6.25;1.75;;;;;;;;5103632;27;61952;-75
2022/11/02 05:43:15;;;;;;;;;4.00;1.25;;;;;;;;5104048;27;61831;-75
2022/11/02 05:45:40;;;;;;;;;2.25;0.00;;;;;;;;5103420;27;61878;-74
2022/11/02 05:48:06;;;;;;;;;1.50;1.00;;;;;;;;5104447;27;61764;-75
2022/11/02 05:50:31;;;;;;;;;3.00;0.25;;;;;;;;5103173;27;61925;-74
2022/11/02 05:52:56;;;;;;;;;1.00;1.00;;;;;;;;5103600;27;61888;-74
2022/11/02 05:55:22;;;;;;;;;0.75;0.75;;;;;;;;5085467;27;62063;-74
2022/11/02 05:57:54;;;;;;;;;3.00;0.00;;;;;;;;5082202;27;62069;-74
2022/11/02 06:00:20;;;;;;;;;3.50;1.50;;;;;;;;5082324;27;62032;-74
2022/11/02 06:02:46;;;;;;;;;1.00;0.25;;;;;;;;5083285;27;61790;-74
2022/11/02 06:05:11;;;;;;;;;2.00;2.00;;;;;;;;5083079;27;62117;-74
2022/11/02 06:07:37;;;;;;;;;1.00;1.00;;;;;;;;5083183;27;61943;-76
2022/11/02 06:10:02;;;;;;;;;1.25;1.25;;;;;;;;5081460;28;64018;-75
2022/11/02 06:12:27;;;;;;;;;3.25;1.00;;;;;;;;5081739;27;61981;-77
2022/11/02 06:14:53;;;;;;;;;1.50;0.00;;;;;;;;5081424;28;61879;-76
2022/11/02 06:17:18;;;;;;;;;4.00;1.75;;;;;;;;5083278;28;61828;-76
2022/11/02 06:19:43;;;;;;;;;0.00;0.00;;;;;;;;5080895;28;61925;-78
2022/11/02 06:22:08;;;;;;;;;3.00;0.00;;;;;;;;5080789;28;61934;-76
2022/11/02 06:24:34;;;;;;;;;2.25;0.75;;;;;;;;5082878;28;61787;-78
2022/11/02 06:26:59;;;;;;;;;2.00;1.00;;;;;;;;5083351;28;61751;-76
2022/11/02 06:29:24;;;;;;;;;0.50;0.00;;;;;;;;5080901;27;63903;-75
2022/11/02 06:31:49;;;;;;;;;2.00;0.75;;;;;;;;5083014;27;61934;-75
2022/11/02 06:34:15;;;;;;;;;1.25;1.00;;;;;;;;5081514;28;61868;-73
2022/11/02 06:36:44;;;;;;;;;3.00;2.00;;;;;;;;5081226;28;61778;-74
2022/11/02 06:39:11;;;;;;;;;3.50;1.00;;;;;;;;5082389;28;62644;-74
2022/11/02 06:41:36;;;;;;;;;4.00;1.00;;;;;;;;5082745;27;62036;-73
2022/11/02 06:44:01;;;;;;;;;2.00;1.25;;;;;;;;5081236;28;62028;-74
2022/11/02 06:46:26;;;;;;;;;1.50;1.50;;;;;;;;5081951;27;62114;-74
2022/11/02 06:48:52;;;;;;;;;0.25;0.25;;;;;;;;5081773;27;62468;-74
2022/11/02 06:51:17;;;;;;;;;1.00;1.00;;;;;;;;5080857;28;61910;-73
2022/11/02 06:53:43;;;;;;;;;4.75;2.75;;;;;;;;5082721;28;62097;-74
2022/11/02 06:56:08;;;;;;;;;3.50;1.00;;;;;;;;5082935;27;62052;-73
2022/11/02 06:58:33;;;;;;;;;1.00;1.00;;;;;;;;5080471;28;63442;-74
2022/11/02 07:01:03;;;;;;;;;1.75;1.00;;;;;;;;5080708;28;61808;-73
2022/11/02 07:03:29;;;;;;;;;2.00;1.00;;;;;;;;5081118;28;61815;-73
2022/11/02 07:05:54;;;;;;;;;1.25;0.75;;;;;;;;5082333;27;61709;-73
2022/11/02 07:08:20;;;;;;;;;3.25;1.00;;;;;;;;5081854;27;62770;-73
2022/11/02 07:10:45;;;;;;;;;3.25;1.25;;;;;;;;5082275;28;61838;-73
2022/11/02 07:13:10;;;;;;;;;3.00;1.25;;;;;;;;5082422;27;61853;-73
2022/11/02 07:15:36;;;;;;;;;3.00;1.25;;;;;;;;5080839;28;62116;-73
2022/11/02 07:18:01;;;;;;;;;1.25;1.00;;;;;;;;5081834;27;62793;-73
2022/11/02 07:20:26;;;;;;;;;2.50;1.75;;;;;;;;5079470;27;61792;-72
2022/11/02 07:22:53;;;;;;;;;1.00;1.00;;;;;;;;5066675;28;61926;-73
2022/11/02 07:25:18;;;;;;;;;3.25;0.50;;;;;;;;5060826;28;61862;-72
2022/11/02 07:27:43;;;;;;;;;4.25;3.00;;;;;;;;5060821;28;63918;-72
2022/11/02 07:30:09;;;;;;;;;4.00;2.00;;;;;;;;5080739;28;61934;-72
2022/11/02 07:32:41;;;;;;;;;2.50;1.00;;;;;;;;5081122;28;61894;-72
2022/11/02 07:35:07;;;;;;;;;1.50;1.50;;;;;;;;5063727;28;61733;-72
2022/11/02 07:37:33;;;;;;;;;3.75;1.00;;;;;;;;5064525;28;62664;-72
2022/11/02 07:39:58;;;;;;;;;0.50;0.50;;;;;;;;5063670;28;61798;-73
2022/11/02 07:42:23;;;;;;;;;1.00;1.00;;;;;;;;5063861;28;61843;-73
2022/11/02 07:44:48;;;;;;;;;2.50;2.50;;;;;;;;5065079;28;62280;-73
2022/11/02 07:47:14;;;;;;;;;4.00;0.75;;;;;;;;5084403;27;61789;-74
2022/11/02 07:49:39;;;;;;;;;2.75;1.25;;;;;;;;5082891;28;61811;-74
2022/11/02 07:52:04;;;;;;;;;1.00;1.00;;;;;;;;5085048;28;61799;-74
2022/11/02 07:54:29;;;;;;;;;5.00;1.50;;;;;;;;5084372;28;62152;-74
2022/11/02 07:56:55;;;;;;;;;4.50;1.50;;;;;;;;5089567;27;61876;-76
2022/11/02 07:59:21;;;;;;;;;3.50;2.00;;;;;;;;5105737;27;61804;-74
2022/11/02 08:01:46;;;;;;;;;3.00;1.50;;;;;;;;5105505;27;61688;-74
2022/11/02 08:04:11;;;;;;;;;3.00;1.75;;;;;;;;5105757;27;61899;-75
2022/11/02 08:06:37;;;;;;;;;0.00;0.00;;;;;;;;5104827;27;62734;-75
2022/11/02 08:09:02;;;;;;;;;1.75;1.00;;;;;;;;5105668;27;61888;-74
2022/11/02 08:11:28;;;;;;;;;1.50;1.50;;;;;;;;5105654;27;61967;-74
2022/11/02 08:13:53;;;;;;;;;2.50;2.00;;;;;;;;5086732;27;61750;-75
2022/11/02 08:16:18;;;;;;;;;1.00;1.00;;;;;;;;5104807;27;61690;-74
2022/11/02 08:18:43;;;;;;;;;4.25;0.00;;;;;;;;5104533;27;61679;-74
2022/11/02 08:21:10;;;;;;;;;1.50;1.00;;;;;;;;5091588;27;61966;-74
2022/11/02 08:23:35;;;;;;;;;1.00;1.00;;;;;;;;5085164;28;61732;-74
2022/11/02 08:26:01;;;;;;;;;2.50;0.75;;;;;;;;5083613;28;61819;-74
2022/11/02 08:28:29;;;;;;;;;4.75;2.00;;;;;;;;5066495;28;61941;-75
2022/11/02 08:30:56;;;;;;;;;2.75;1.00;;;;;;;;5084564;28;61953;-75
2022/11/02 08:33:21;;;;;;;;;2.00;0.25;;;;;;;;5084355;27;61962;-73
2022/11/02 08:35:47;;;;;;;;;2.50;2.00;;;;;;;;5083812;27;61809;-73
2022/11/02 08:38:13;;;;;;;;;1.00;0.00;;;;;;;;5066441;28;61701;-73
2022/11/02 08:40:38;;;;;;;;;3.50;2.00;;;;;;;;5084607;28;61732;-74
2022/11/02 08:43:04;;;;;;;;;3.00;1.75;;;;;;;;5066427;28;61837;-73
2022/11/02 08:45:30;;;;;;;;;4.50;0.25;;;;;;;;5087634;27;62635;-73
2022/11/02 08:47:59;;;;;;;;;2.00;2.00;;;;;;;;5085787;27;61728;-73
2022/11/02 08:50:24;;;;;;;;;3.00;1.25;;;;;;;;5104425;27;61930;-73
2022/11/02 08:52:59;;;;;;;;;1.00;1.00;;;;;;;;5086298;27;61753;-73
2022/11/02 08:55:25;;;;;;;;;1.00;0.00;;;;;;;;5104480;27;62671;-73
2022/11/02 08:57:54;;;;;;;;;2.00;1.00;;;;;;;;5104372;27;61996;-73
2022/11/02 09:00:20;;;;;;;;;2.50;1.75;;;;;;;;5104552;27;61822;-73
2022/11/02 09:02:58;;;;;;;;;2.75;2.00;;;;;;;;5104513;27;62078;-74
2022/11/02 09:05:23;;;;;;;;;2.00;1.00;;;;;;;;5085823;27;65335;-76
2022/11/02 09:07:53;;;;;;;;;3.25;1.75;;;;;;;;5086102;27;62101;-76
2022/11/02 09:10:18;;;;;;;;;1.00;1.00;;;;;;;;5086174;27;61673;-78
2022/11/02 09:12:43;;;;;;;;;1.00;0.25;;;;;;;;5104425;27;61772;-74
2022/11/02 09:15:09;;;;;;;;;1.75;1.00;;;;;;;;5103642;27;61965;-74
2022/11/02 09:17:34;;;;;;;;;3.00;1.00;;;;;;;;5085755;27;62221;-74
2022/11/02 09:19:59;;;;;;;;;3.25;2.00;;;;;;;;5102004;27;61853;-74
2022/11/02 09:22:25;;;;;;;;;4.00;1.00;;;;;;;;5083958;27;62018;-73
2022/11/02 09:24:50;;;;;;;;;3.00;3.00;;;;;;;;5083151;28;62631;-74
2022/11/02 09:27:15;;;;;;;;;2.00;0.75;;;;;;;;5083829;28;61666;-73
2022/11/02 09:29:40;;;;;;;;;6.25;1.75;;;;;;;;5083414;28;61845;-74
2022/11/02 09:32:06;;;;;;;;;3.25;1.00;;;;;;;;5083238;28;62037;-73
2022/11/02 09:34:31;;;;;;;;;4.75;1.50;;;;;;;;5083445;27;62632;-74
2022/11/02 09:36:57;;;;;;;;;2.00;0.75;;;;;;;;5083530;27;62099;-74
2022/11/02 09:39:23;;;;;;;;;2.25;1.00;;;;;;;;5083907;27;61926;-74
2022/11/02 09:42:03;;;;;;;;;2.25;1.00;;;;;;;;5065373;28;62074;-73
2022/11/02 09:44:55;;;;;;;;;1.50;0.50;;;;;;;;5082460;28;62747;-73
2022/11/02 09:47:20;;;;;;;;;2.00;2.00;;;;;;;;5080361;27;61903;-73
2022/11/02 09:49:46;;;;;;;;;2.25;0.75;;;;;;;;5103416;27;61781;-74
2022/11/02 09:52:15;;;;;;;;;4.00;3.00;;;;;;;;5104044;27;61666;-74
2022/11/02 09:54:49;;;;;;;;;2.00;1.00;;;;;;;;5084589;27;64529;-73
2022/11/02 09:57:26;;;;;;;;;5.00;1.25;;;;;;;;5102570;27;62090;-73
2022/11/02 09:59:52;;;;;;;;;1.25;1.25;;;;;;;;5103090;27;61983;-74
2022/11/02 10:02:24;;;;;;;;;3.00;0.50;;;;;;;;5103803;27;61730;-74
2022/11/02 10:05:08;;;;;;;;;5.00;2.00;;;;;;;;5103185;27;63104;-73
2022/11/02 10:07:39;;;;;;;;;2.00;1.00;;;;;;;;5084990;27;61918;-73
2022/11/02 10:10:13;;;;;;;;;5.00;2.50;;;;;;;;5103672;27;61736;-73
2022/11/02 10:12:59;;;;;;;;;2.50;2.00;;;;;;;;5103670;27;61959;-74
2022/11/02 10:15:29;;;;;;;;;2.00;2.00;;;;;;;;5102168;27;61801;-74
2022/11/02 10:17:57;;;;;;;;;2.00;2.00;;;;;;;;5103170;27;61720;-74
2022/11/02 10:20:28;;;;;;;;;2.25;1.00;;;;;;;;5097748;27;62272;-73
2022/11/02 10:22:58;;;;;;;;;1.75;1.00;;;;;;;;5083097;28;61757;-74
2022/11/02 10:25:24;;;;;;;;;3.75;2.00;;;;;;;;5082150;28;61966;-73
2022/11/02 10:27:53;;;;;;;;;1.75;0.75;;;;;;;;5082195;28;62124;-74
2022/11/02 10:30:19;;;;;;;;;3.25;1.75;;;;;;;;5082634;28;61919;-74
2022/11/02 10:32:48;;;;;;;;;1.00;1.00;;;;;;;;5083138;28;61787;-74
2022/11/02 10:35:19;;;;;;;;;1.50;0.75;;;;;;;;5082151;28;61669;-73
2022/11/02 10:38:02;;;;;;;;;3.75;1.50;;;;;;;;5082680;27;61874;-74
2022/11/02 10:40:34;;;;;;;;;0.50;0.50;;;;;;;;5082809;28;61687;-74
2022/11/02 10:42:59;;;;;;;;;1.00;1.00;;;;;;;;5082063;27;61736;-74
2022/11/02 10:45:28;;;;;;;;;4.00;1.25;;;;;;;;5067741;27;61962;-73
2022/11/02 10:48:01;;;;;;;;;0.50;0.50;;;;;;;;5103073;27;61821;-73
2022/11/02 10:50:32;;;;;;;;;0.25;0.25;;;;;;;;5102506;27;61728;-74
2022/11/02 10:53:02;;;;;;;;;2.75;2.00;;;;;;;;5084774;27;62109;-73
2022/11/02 10:55:44;;;;;;;;;1.00;0.00;;;;;;;;5083811;27;63429;-74
2022/11/02 10:58:14;;;;;;;;;1.50;0.50;;;;;;;;5102358;27;61766;-74
2022/11/02 11:00:41;;;;;;;;;2.00;0.25;;;;;;;;5102311;27;61676;-74
2022/11/02 11:03:11;;;;;;;;;3.75;2.25;;;;;;;;5103012;27;61986;-74
2022/11/02 11:05:42;;;;;;;;;4.00;2.00;;;;;;;;5083630;27;62062;-74
2022/11/02 11:08:25;;;;;;;;;3.50;2.50;;;;;;;;5084408;27;61922;-74
2022/11/02 11:10:50;;;;;;;;;0.75;0.75;;;;;;;;5105959;27;61641;-74
2022/11/02 11:13:21;;;;;;;;;2.75;1.75;;;;;;;;5106126;27;61739;-75
2022/11/02 11:15:49;;;;;;;;;1.00;1.00;;;;;;;;5105615;27;62001;-74
2022/11/02 11:18:17;;;;;;;;;5.50;1.75;;;;;;;;5106375;27;61801;-74
2022/11/02 11:20:43;;;;;;;;;2.00;2.00;;;;;;;;5097694;27;61967;-74
2022/11/02 11:23:09;;;;;;;;;3.00;1.00;;;;;;;;5067762;28;61835;-75
2022/11/02 11:25:34;;;;;;;;;1.50;1.50;;;;;;;;5085153;28;61812;-74
2022/11/02 11:28:00;;;;;;;;;1.75;1.00;;;;;;;;5066974;28;61895;-75
2022/11/02 11:30:27;;;;;;;;;2.75;1.50;;;;;;;;5090363;27;61866;-76
2022/11/02 11:32:53;;;;;;;;;5.00;1.75;;;;;;;;5106398;27;61626;-76
2022/11/02 11:35:19;;;;;;;;;1.00;1.00;;;;;;;;5105286;27;61783;-76
2022/11/02 11:38:05;;;;;;;;;3.75;0.75;;;;;;;;5106170;27;61945;-74
2022/11/02 11:40:34;;;;;;;;;2.00;2.00;;;;;;;;5104746;27;61822;-75
2022/11/02 11:43:00;;;;;;;;;6.00;1.00;;;;;;;;5087078;27;62041;-78
2022/11/02 11:45:26;;;;;;;;;2.25;1.25;;;;;;;;5085503;27;63250;-76
2022/11/02 11:48:10;;;;;;;;;5.00;2.00;;;;;;;;5105859;27;62145;-74
2022/11/02 11:50:35;;;;;;;;;3.25;1.25;;;;;;;;5085431;27;62170;-75
2022/11/02 11:53:22;;;;;;;;;5.25;2.00;;;;;;;;5105018;27;61840;-75
2022/11/02 11:55:52;;;;;;;;;1.50;1.00;;;;;;;;5086618;27;62651;-75
2022/11/02 11:58:28;;;;;;;;;4.25;2.00;;;;;;;;5084782;27;61979;-75
2022/11/02 12:01:06;;;;;;;;;2.50;1.25;;;;;;;;5066711;28;61930;-74
2022/11/02 12:03:31;;;;;;;;;3.50;2.00;;;;;;;;5085112;27;62123;-74
2022/11/02 12:06:21;;;;;;;;;1.00;1.00;;;;;;;;5084476;28;62783;-73
2022/11/02 12:09:01;;;;;;;;;3.50;2.00;;;;;;;;5084995;27;61791;-75
2022/11/02 12:11:26;;;;;;;;;3.00;1.00;;;;;;;;5084588;27;61623;-74
2022/11/02 12:14:01;;;;;;;;;1.00;1.00;;;;;;;;5084790;27;61746;-74
2022/11/02 12:16:32;;;;;;;;;3.33;1.67;;;;;;;;5084020;27;61954;-75
2022/11/02 12:19:16;;;;;;;;;1.00;1.00;;;;;;;;5084449;27;61982;-74
2022/11/02 12:21:50;;;;;;;;;2.67;1.00;;;;;;;;5084367;27;62028;-75
2022/11/02 12:24:27;;;;;;;;;0.00;0.00;;;;;;;;5066271;28;62273;-75
2022/11/02 12:27:14;;;;;;;;;7.00;1.33;;;;;;;;5083925;28;61740;-75
2022/11/02 12:29:52;;;;;;;;;2.00;1.00;;;;;;;;5084415;27;61825;-75
2022/11/02 12:32:29;;;;;;;;;5.33;0.67;;;;;;;;5084797;28;61661;-76
2022/11/02 12:35:00;;;;;;;;;4.00;1.33;;;;;;;;5084749;28;62063;-75
2022/11/02 12:37:46;;;;;;;;;2.33;1.67;;;;;;;;5065762;28;64341;-75
2022/11/02 12:40:17;;;;;;;;;8.33;1.67;;;;;;;;5083255;28;61777;-75
2022/11/02 12:42:56;;;;;;;;;2.33;1.00;;;;;;;;5065887;28;61770;-75
2022/11/02 12:45:25;;;;;;;;;1.67;1.67;;;;;;;;5087111;27;61970;-75
2022/11/02 12:47:50;;;;;;;;;0.33;0.00;;;;;;;;5085722;27;63012;-73
2022/11/02 12:50:33;;;;;;;;;3.33;0.67;;;;;;;;5104596;27;61743;-73
2022/11/02 12:53:17;;;;;;;;;2.67;2.33;;;;;;;;5104436;27;61839;-74
2022/11/02 12:55:44;;;;;;;;;0.00;0.00;;;;;;;;5104730;27;61667;-73
2022/11/02 12:58:21;;;;;;;;;1.00;0.00;;;;;;;;5103973;27;61908;-73
2022/11/02 13:00:49;;;;;;;;;3.33;0.00;;;;;;;;5104120;27;61934;-74
2022/11/02 13:03:31;;;;;;;;;1.00;1.00;;;;;;;;5104750;27;61958;-74
2022/11/02 13:06:05;;;;;;;;;1.00;1.00;;;;;;;;5104886;27;62086;-74
2022/11/02 13:08:38;;;;;;;;;2.67;0.67;;;;;;;;5084874;27;61962;-74
2022/11/02 13:11:06;;;;;;;;;0.33;0.33;;;;;;;;5104510;27;61833;-74
2022/11/02 13:13:31;;;;;;;;;0.67;0.67;;;;;;;;5104700;27;61771;-74
2022/11/02 13:15:59;;;;;;;;;1.00;1.00;;;;;;;;5085475;27;61765;-74
2022/11/02 13:18:26;;;;;;;;;4.00;0.67;;;;;;;;5103321;27;61857;-74
2022/11/02 13:20:56;;;;;;;;;3.00;0.67;;;;;;;;5094936;27;61875;-74
2022/11/02 13:23:28;;;;;;;;;1.00;1.00;;;;;;;;5083494;28;62213;-73
2022/11/02 13:25:56;;;;;;;;;2.00;1.00;;;;;;;;5065417;28;61657;-73
2022/11/02 13:28:54;;;;;;;;;5.67;0.00;;;;;;;;5064821;28;63984;-73
2022/11/02 13:31:35;;;;;;;;;0.67;0.67;;;;;;;;5019834;28;61951;-74
2022/11/02 13:34:03;;;;;;;;;0.33;0.33;;;;;;;;5003761;28;62084;-74
2022/11/02 13:36:28;;;;;;;;;0.00;0.00;;;;;;;;5020602;28;62112;-74
2022/11/02 13:38:57;;;;;;;;;0.67;0.67;;;;;;;;5003227;28;62032;-73
2022/11/02 13:41:28;;;;;;;;;2.00;0.33;;;;;;;;5020684;28;61947;-74
2022/11/02 13:43:56;;;;;;;;;3.00;0.00;;;;;;;;5003933;28;62088;-74
2022/11/02 13:46:22;;;;;;;;;2.67;0.67;;;;;;;;5020384;28;61907;-74
2022/11/02 13:48:54;;;;;;;;;0.67;0.67;;;;;;;;5019437;28;61908;-74
2022/11/02 13:51:24;;;;;;;;;0.67;0.67;;;;;;;;5020178;28;61923;-74
2022/11/02 13:53:52;;;;;;;;;2.00;0.00;;;;;;;;5020384;28;61883;-74
2022/11/02 13:56:25;;;;;;;;;3.67;0.67;;;;;;;;5020761;28;61938;-73
2022/11/02 13:58:56;;;;;;;;;0.67;0.33;;;;;;;;5003314;28;62949;-73
2022/11/02 14:01:23;;;;;;;;;1.33;1.00;;;;;;;;5020270;28;61786;-75
2022/11/02 14:03:53;;;;;;;;;3.33;1.33;;;;;;;;5020017;28;61928;-73
2022/11/02 14:06:19;;;;;;;;;1.00;1.00;;;;;;;;5018263;28;62120;-73
2022/11/02 14:08:50;;;;;;;;;1.33;0.00;;;;;;;;5082525;28;61859;-72
2022/11/02 14:11:16;;;;;;;;;0.00;0.00;;;;;;;;5083279;28;62025;-72
2022/11/02 14:13:50;;;;;;;;;0.00;0.00;;;;;;;;5064655;28;61980;-72
2022/11/02 14:16:35;;;;;;;;;0.67;0.67;;;;;;;;5064569;28;62031;-72
2022/11/02 14:19:12;;;;;;;;;1.00;1.00;;;;;;;;5081914;28;61677;-72
2022/11/02 14:21:49;;;;;;;;;0.67;0.00;;;;;;;;5082500;28;61810;-72
2022/11/02 14:24:33;;;;;;;;;1.67;1.00;;;;;;;;5082975;28;62093;-72
2022/11/02 14:26:59;;;;;;;;;1.67;0.33;;;;;;;;5083297;28;62135;-73
2022/11/02 14:29:37;;;;;;;;;0.33;0.33;;;;;;;;5082284;28;61791;-73
2022/11/02 14:32:11;;;;;;;;;0.67;0.00;;;;;;;;5064148;28;61821;-72
2022/11/02 14:35:03;;;;;;;;;3.00;1.00;;;;;;;;5063916;27;61778;-72
2022/11/02 14:37:34;;;;;;;;;1.33;1.00;;;;;;;;5083190;27;61859;-72
2022/11/02 14:40:18;;;;;;;;;0.00;0.00;;;;;;;;5082150;27;63095;-72
2022/11/02 14:42:46;;;;;;;;;1.00;1.00;;;;;;;;5082319;28;61768;-73
2022/11/02 14:45:30;;;;;;;;;2.33;0.00;;;;;;;;5083483;27;62090;-73
2022/11/02 14:47:58;;;;;;;;;1.00;0.33;;;;;;;;5084922;27;61725;-72
2022/11/02 14:50:24;;;;;;;;;0.33;0.00;;;;;;;;5101456;27;62775;-73
2022/11/02 14:52:55;;;;;;;;;2.00;0.67;;;;;;;;5084361;27;61924;-72
2022/11/02 14:55:22;;;;;;;;;1.67;0.00;;;;;;;;5084443;27;62052;-73
2022/11/02 14:57:57;;;;;;;;;0.00;0.00;;;;;;;;5103110;27;61889;-73
2022/11/02 15:00:28;;;;;;;;;3.50;1.00;;;;;;;;5101885;27;62703;-73
2022/11/02 15:02:54;;;;;;;;;4.00;0.00;;;;;;;;5084321;27;62058;-73
2022/11/02 15:05:49;;;;;;;;;3.00;1.00;;;;;;;;5083745;27;61818;-73
2022/11/02 15:08:14;;;;;;;;;3.33;1.00;;;;;;;;5084825;27;61788;-73